Time;durP1;ratioP1;P1;durP2;ratioP2;P2;SDS_P1;SDS_P2;PMS_P1;PMS_P2;Temp;Humidity;BMP_temperature;BMP_pressure;BME280_temperature;BME280_humidity;BME280_pressure;Samples;Min_cycle;Max_cycle;Signal;HPM_P1;HPM_P2
2023/09/12 00:03:22;;;;;;;10.80;4.95;;;;;;;21.65;60.50;99922.53;10298487;28;20042;-59
2023/09/12 00:08:24;;;;;;;13.35;5.03;;;;;;;21.52;60.83;99929.25;10282050;28;20167;-59
2023/09/12 00:13:26;;;;;;;8.40;4.28;;;;;;;21.49;61.16;99923.50;10298498;28;20072;-59
2023/09/12 00:18:27;;;;;;;12.65;5.65;;;;;;;21.49;61.00;99924.31;10298375;28;20062;-59
2023/09/12 00:23:30;;;;;;;11.50;4.90;;;;;;;21.52;61.08;99906.56;10297723;28;20043;-59
2023/09/12 00:28:33;;;;;;;19.35;4.93;;;;;;;21.49;61.10;99902.44;10300528;28;20062;-59
2023/09/12 00:33:34;;;;;;;10.98;5.10;;;;;;;21.47;61.00;99890.13;10306801;28;20050;-59
2023/09/12 00:38:38;;;;;;;12.07;4.53;;;;;;;21.43;60.98;99891.69;10293488;28;20070;-58
2023/09/12 00:43:41;;;;;;;9.10;4.82;;;;;;;21.40;61.03;99884.81;10285055;28;20448;-57
2023/09/12 00:48:42;;;;;;;22.92;5.20;;;;;;;21.35;61.29;99880.13;10303025;28;20137;-60
2023/09/12 00:53:44;;;;;;;14.00;5.97;;;;;;;21.30;61.75;99876.50;10280357;28;20061;-60
2023/09/12 00:58:46;;;;;;;13.90;5.80;;;;;;;21.18;61.67;99884.88;10295622;28;20054;-59
2023/09/12 01:03:47;;;;;;;13.05;5.38;;;;;;;20.94;62.41;99885.16;10294432;28;20795;-59
2023/09/12 01:08:49;;;;;;;11.30;5.35;;;;;;;20.96;62.85;99888.47;10299850;28;20077;-59
2023/09/12 01:13:50;;;;;;;7.68;4.20;;;;;;;20.96;62.39;99877.53;10297453;28;20039;-60
2023/09/12 01:18:52;;;;;;;16.05;4.90;;;;;;;20.85;62.69;99875.75;10296450;28;20089;-60
2023/09/12 01:24:08;;;;;;;12.25;4.60;;;;;;;20.78;63.02;99875.97;10301576;28;20043;-60
2023/09/12 01:29:12;;;;;;;11.18;5.43;;;;;;;20.74;62.69;99877.56;10282868;28;20051;-59
2023/09/12 01:34:14;;;;;;;11.60;4.50;;;;;;;20.71;63.19;99880.78;10299040;28;20442;-59
2023/09/12 01:39:15;;;;;;;12.93;5.57;;;;;;;20.67;63.41;99887.03;10303607;28;20055;-60
2023/09/12 01:44:18;;;;;;;14.98;5.45;;;;;;;20.60;63.12;99870.84;10311588;28;20082;-59
2023/09/12 01:49:23;;;;;;;16.92;5.90;;;;;;;20.57;63.08;99865.84;10311658;28;20039;-59
2023/09/12 01:54:27;;;;;;;9.15;4.32;;;;;;;20.55;63.36;99857.91;10306108;28;20039;-59
2023/09/12 01:59:29;;;;;;;12.52;6.10;;;;;;;20.44;63.75;99864.31;10301292;28;20154;-59
2023/09/12 02:04:30;;;;;;;11.25;5.32;;;;;;;20.33;64.10;99870.72;10303092;28;20049;-59
2023/09/12 02:09:32;;;;;;;12.32;6.22;;;;;;;20.31;64.22;99867.41;10310699;28;20046;-59
2023/09/12 02:14:33;;;;;;;16.05;5.95;;;;;;;20.30;64.50;99871.22;10308136;28;20322;-59
2023/09/12 02:19:35;;;;;;;10.45;5.72;;;;;;;20.11;64.85;99887.06;10300558;28;20396;-59
2023/09/12 02:24:36;;;;;;;14.43;6.53;;;;;;;20.14;64.90;99892.00;10303559;28;20034;-59
2023/09/12 02:29:39;;;;;;;15.57;5.65;;;;;;;20.24;64.60;99886.72;10301676;28;20042;-59
2023/09/12 02:34:41;;;;;;;12.70;5.18;;;;;;;20.30;64.77;99885.72;10301649;28;20606;-59
2023/09/12 02:39:42;;;;;;;15.13;6.18;;;;;;;20.30;64.52;99879.41;10302802;28;20444;-59
2023/09/12 02:44:44;;;;;;;14.68;5.13;;;;;;;20.32;64.53;99885.44;10307663;28;20161;-59
2023/09/12 02:49:45;;;;;;;9.63;5.00;;;;;;;20.29;64.38;99881.31;10304295;28;20049;-59
2023/09/12 02:54:46;;;;;;;11.00;5.90;;;;;;;20.30;64.77;99876.66;10300624;28;20046;-58
2023/09/12 02:59:48;;;;;;;18.15;5.68;;;;;;;20.26;64.27;99870.91;10306895;28;20145;-59
2023/09/12 03:04:49;;;;;;;13.60;6.43;;;;;;;20.20;64.44;99870.00;10302334;28;20134;-57
2023/09/12 03:09:51;;;;;;;11.75;5.63;;;;;;;20.19;64.79;99872.97;10303582;28;20053;-57
2023/09/12 03:14:52;;;;;;;15.52;6.55;;;;;;;20.12;64.72;99862.25;10303826;28;20544;-59
2023/09/12 03:19:54;;;;;;;14.57;6.63;;;;;;;19.92;65.28;99873.69;10300060;28;20504;-58
2023/09/12 03:24:55;;;;;;;14.27;6.93;;;;;;;19.75;65.89;99883.78;10296931;28;20074;-57
2023/09/12 03:29:56;;;;;;;10.93;7.15;;;;;;;19.78;65.76;99867.72;10300277;28;20062;-57
2023/09/12 03:34:58;;;;;;;17.75;6.43;;;;;;;19.86;65.43;99858.31;10298533;28;20046;-57
2023/09/12 03:39:59;;;;;;;11.48;6.68;;;;;;;19.87;65.41;99862.69;10299688;28;20070;-57
2023/09/12 03:45:01;;;;;;;13.63;6.93;;;;;;;19.90;65.45;99853.19;10300417;28;20125;-58
2023/09/12 03:50:03;;;;;;;19.27;7.45;;;;;;;19.92;65.79;99848.31;10297743;28;20669;-58
2023/09/12 03:55:05;;;;;;;22.05;8.07;;;;;;;19.95;65.46;99856.00;10299626;28;20049;-58
2023/09/12 04:00:07;;;;;;;15.48;7.43;;;;;;;19.99;65.75;99838.88;10302157;28;20053;-57
2023/09/12 04:05:10;;;;;;;13.43;7.20;;;;;;;20.00;65.89;99847.88;10300368;28;20863;-57
2023/09/12 04:10:12;;;;;;;14.27;8.02;;;;;;;19.96;66.36;99855.75;10298192;28;20732;-59
2023/09/12 04:15:13;;;;;;;15.23;8.18;;;;;;;20.00;66.30;99848.72;10296480;28;20043;-57
2023/09/12 04:20:15;;;;;;;16.83;7.85;;;;;;;19.98;66.48;99856.34;10295222;28;20134;-57
2023/09/12 04:25:16;;;;;;;14.18;7.30;;;;;;;19.97;66.78;99857.38;10298674;28;20058;-57
2023/09/12 04:30:17;;;;;;;12.57;6.80;;;;;;;20.11;66.29;99849.69;10301539;28;20143;-58
2023/09/12 04:35:20;;;;;;;11.60;7.03;;;;;;;20.20;66.35;99853.63;10297359;28;20121;-57
2023/09/12 04:40:21;;;;;;;15.98;6.82;;;;;;;20.29;65.93;99866.84;10300074;28;20050;-58
2023/09/12 04:45:23;;;;;;;21.70;7.78;;;;;;;20.24;66.26;99867.59;10297233;28;20419;-58
2023/09/12 04:50:24;;;;;;;16.42;6.95;;;;;;;20.38;66.20;99873.53;10303705;28;20404;-58
2023/09/12 04:55:26;;;;;;;14.48;6.53;;;;;;;20.45;65.87;99874.16;10299611;28;20058;-57
2023/09/12 05:00:27;;;;;;;13.93;5.55;;;;;;;20.55;65.69;99860.63;10293695;28;20054;-58
2023/09/12 05:05:29;;;;;;;12.88;7.30;;;;;;;20.66;65.77;99871.72;10295410;28;20042;-57
2023/09/12 05:10:31;;;;;;;17.45;6.65;;;;;;;20.63;66.03;99867.56;10295081;28;20395;-56
2023/09/12 05:15:32;;;;;;;14.80;6.78;;;;;;;20.61;66.32;99867.00;10294092;28;20065;-56
2023/09/12 05:20:34;;;;;;;12.50;6.82;;;;;;;20.66;66.19;99855.34;10297073;28;20106;-57
2023/09/12 05:25:35;;;;;;;15.00;6.80;;;;;;;20.69;66.43;99854.81;10298191;28;20521;-57
2023/09/12 05:30:37;;;;;;;14.95;6.60;;;;;;;20.74;66.08;99852.97;10297456;28;20049;-57
2023/09/12 05:35:39;;;;;;;13.82;6.45;;;;;;;20.73;66.44;99848.56;10297244;28;20043;-58
2023/09/12 05:40:40;;;;;;;17.42;7.07;;;;;;;20.84;66.07;99852.25;10302966;28;20073;-59
2023/09/12 05:45:42;;;;;;;10.18;6.43;;;;;;;20.65;66.41;99865.41;10297441;28;20115;-57
2023/09/12 05:50:44;;;;;;;11.57;6.43;;;;;;;20.69;66.71;99868.47;10286545;28;20046;-57
2023/09/12 05:55:46;;;;;;;14.77;7.25;;;;;;;20.89;66.19;99860.53;10299824;28;20066;-57
2023/09/12 06:00:47;;;;;;;15.55;6.90;;;;;;;21.05;65.83;99864.25;10297790;28;20042;-57
2023/09/12 06:05:49;;;;;;;15.35;6.63;;;;;;;21.14;65.79;99873.63;10299048;28;20042;-57
2023/09/12 06:10:53;;;;;;;18.88;7.05;;;;;;;21.10;66.21;99880.69;10296099;28;20047;-55
2023/09/12 06:15:55;;;;;;;15.48;6.95;;;;;;;21.23;65.61;99873.16;10296388;28;20710;-56
2023/09/12 06:20:57;;;;;;;13.40;6.70;;;;;;;21.33;65.60;99884.22;10297092;28;20472;-56
2023/09/12 06:25:58;;;;;;;16.45;6.30;;;;;;;21.43;65.36;99884.34;10298120;28;20055;-56
2023/09/12 06:31:00;;;;;;;20.88;6.93;;;;;;;21.50;65.57;99882.19;10306665;28;20057;-57
2023/09/12 06:36:02;;;;;;;13.73;6.95;;;;;;;21.60;65.48;99875.97;10306327;28;20109;-57
2023/09/12 06:41:04;;;;;;;20.30;6.57;;;;;;;21.63;65.16;99870.00;10299757;28;20059;-57
2023/09/12 06:46:05;;;;;;;18.90;7.40;;;;;;;21.67;65.35;99873.88;10306414;28;20050;-57
2023/09/12 06:51:08;;;;;;;23.15;7.57;;;;;;;21.76;65.06;99864.09;10302926;28;20100;-58
2023/09/12 06:56:17;;;;;;;18.35;7.57;;;;;;;21.87;64.76;99873.19;10304086;28;20054;-57
2023/09/12 07:01:18;;;;;;;14.20;6.85;;;;;;;21.92;64.70;99886.94;10309519;28;20054;-57
2023/09/12 07:06:20;;;;;;;14.02;6.78;;;;;;;21.97;64.58;99889.69;10304006;28;20053;-58
2023/09/12 07:11:24;;;;;;;15.52;7.45;;;;;;;22.01;64.80;99886.44;10302869;28;20124;-57
2023/09/12 07:16:25;;;;;;;14.93;6.38;;;;;;;22.10;64.38;99884.88;10308254;28;20053;-57
2023/09/12 07:21:27;;;;;;;16.77;6.70;;;;;;;22.27;63.99;99880.03;10305689;28;20048;-59
2023/09/12 07:26:28;;;;;;;16.20;6.40;;;;;;;22.41;63.99;99885.06;10300342;28;20069;-58
2023/09/12 07:31:30;;;;;;;15.90;6.57;;;;;;;22.55;63.95;99900.75;10303677;28;20046;-57
2023/09/12 07:36:31;;;;;;;12.60;6.55;;;;;;;22.73;63.79;99899.47;10301288;28;20042;-58
2023/09/12 07:41:33;;;;;;;13.27;5.45;;;;;;;22.92;63.41;99885.28;10294561;28;20608;-58
2023/09/12 07:46:34;;;;;;;12.93;6.00;;;;;;;23.00;63.35;99892.16;10300452;28;20530;-59
2023/09/12 07:51:35;;;;;;;21.35;5.60;;;;;;;23.21;62.83;99884.84;10302108;28;20108;-58
2023/09/12 07:56:37;;;;;;;14.95;4.80;;;;;;;23.33;62.37;99899.13;10304123;28;20466;-60
2023/09/12 08:01:38;;;;;;;14.95;5.28;;;;;;;23.58;61.66;99887.34;10304229;28;20045;-59
2023/09/12 08:06:41;;;;;;;18.48;5.60;;;;;;;23.81;61.43;99887.91;10292822;28;20557;-59
2023/09/12 08:11:58;;;;;;;8.38;3.88;;;;;;;23.99;60.95;99892.03;10301075;28;20137;-58
2023/09/12 08:16:59;;;;;;;15.32;4.65;;;;;;;24.15;59.92;99891.72;10302185;28;20053;-58
2023/09/12 08:22:00;;;;;;;13.57;4.20;;;;;;;24.32;59.97;99899.63;10302138;28;20050;-58
2023/09/12 08:27:03;;;;;;;11.05;3.95;;;;;;;24.53;59.01;99888.63;10300372;28;20046;-58
2023/09/12 08:32:05;;;;;;;11.35;3.92;;;;;;;24.70;58.33;99897.38;10297547;28;20445;-58
2023/09/12 08:37:06;;;;;;;15.20;3.67;;;;;;;24.90;57.91;99890.13;10294867;28;20042;-58
2023/09/12 08:42:15;;;;;;;14.02;3.75;;;;;;;25.10;57.71;99890.03;10299866;28;20053;-58
2023/09/12 08:47:21;;;;;;;12.43;3.63;;;;;;;25.28;56.77;99899.56;10300837;28;20137;-59
2023/09/12 08:52:22;;;;;;;9.75;3.30;;;;;;;25.49;56.59;99889.25;10297114;28;20057;-58
2023/09/12 08:57:24;;;;;;;10.55;3.40;;;;;;;25.75;55.46;99901.97;10288734;28;20038;-58
2023/09/12 09:02:26;;;;;;;7.78;3.35;;;;;;;25.88;54.76;99899.38;10298749;28;20704;-59
2023/09/12 09:07:29;;;;;;;17.30;3.97;;;;;;;25.94;54.27;99894.66;10302885;28;20057;-59
2023/09/12 09:12:31;;;;;;;12.20;2.88;;;;;;;26.19;53.43;99888.09;10307688;28;20069;-58
2023/09/12 09:17:32;;;;;;;13.13;2.90;;;;;;;26.41;52.61;99884.81;10295200;28;20096;-59
2023/09/12 09:22:37;;;;;;;12.15;4.18;;;;;;;26.63;52.78;99881.56;10296118;28;20073;-58
2023/09/12 09:27:39;;;;;;;8.60;3.40;;;;;;;26.86;51.86;99887.34;10293837;28;20047;-58
2023/09/12 09:32:40;;;;;;;7.63;3.03;;;;;;;26.97;51.57;99886.06;10296423;28;20057;-58
2023/09/12 09:37:42;;;;;;;12.85;3.08;;;;;;;27.15;50.91;99865.13;10295897;28;20574;-59
2023/09/12 09:42:44;;;;;;;7.82;3.13;;;;;;;27.29;50.68;99870.75;10303030;28;20057;-59
2023/09/12 09:47:45;;;;;;;14.48;4.47;;;;;;;27.53;50.20;99875.34;10298328;28;20044;-59
2023/09/12 09:52:54;;;;;;;8.00;3.35;;;;;;;27.50;49.87;99872.06;10295530;28;20043;-58
2023/09/12 09:57:56;;;;;;;11.65;2.92;;;;;;;27.59;49.54;99874.16;10296000;28;20053;-57
2023/09/12 10:02:59;;;;;;;11.13;4.28;;;;;;;27.85;48.71;99872.59;10296565;28;20142;-58
2023/09/12 10:08:03;;;;;;;4.60;3.20;;;;;;;27.90;49.07;99868.94;10303414;28;20047;-59
2023/09/12 10:13:05;;;;;;;12.80;4.63;;;;;;;28.20;48.19;99872.25;10308093;28;20038;-59
2023/09/12 10:18:10;;;;;;;9.13;3.30;;;;;;;28.36;47.97;99857.03;10304410;28;20082;-58
2023/09/12 10:23:41;;;;;;;10.30;3.75;;;;;;;28.77;46.91;99858.16;10302059;28;20051;-59
2023/09/12 10:28:45;;;;;;;10.75;3.17;;;;;;;29.06;46.37;99852.25;10306839;28;20046;-59
2023/09/12 10:33:49;;;;;;;9.90;2.97;;;;;;;29.69;45.49;99833.84;10297907;28;20573;-58
2023/09/12 10:38:51;;;;;;;13.02;3.72;;;;;;;30.27;44.27;99833.97;10305392;28;20062;-60
2023/09/12 10:43:53;;;;;;;9.68;3.55;;;;;;;30.58;43.79;99840.31;10301774;28;20049;-60
2023/09/12 10:48:55;;;;;;;14.57;3.28;;;;;;;31.17;42.01;99839.09;10305827;28;20042;-59
2023/09/12 10:53:56;;;;;;;16.02;4.18;;;;;;;31.55;41.16;99830.91;10302899;28;20054;-59
2023/09/12 10:59:04;;;;;;;13.68;4.10;;;;;;;31.74;39.69;99830.56;10297510;28;20058;-59
2023/09/12 11:04:23;;;;;;;10.00;2.88;;;;;;;31.89;38.93;99825.59;10298587;28;20046;-59
2023/09/12 11:09:25;;;;;;;16.23;3.63;;;;;;;31.89;38.45;99822.81;10302139;28;20042;-58
2023/09/12 11:14:27;;;;;;;7.20;2.55;;;;;;;31.98;37.78;99823.59;10300401;28;20480;-58
2023/09/12 11:19:28;;;;;;;13.55;3.47;;;;;;;31.99;37.63;99822.44;10288089;28;20072;-59
2023/09/12 11:24:43;;;;;;;8.80;3.33;;;;;;;31.75;37.80;99826.59;10301052;28;20039;-56
2023/09/12 11:29:45;;;;;;;12.80;3.23;;;;;;;31.55;38.28;99835.66;10305410;28;20050;-58
2023/09/12 11:34:48;;;;;;;9.50;2.53;;;;;;;31.34;38.31;99824.38;10298326;28;21123;-58
2023/09/12 11:39:51;;;;;;;11.43;3.38;;;;;;;31.48;38.10;99827.00;10300865;28;20042;-59
2023/09/12 11:44:52;;;;;;;11.45;3.25;;;;;;;31.54;38.14;99818.19;10293236;28;20050;-57
2023/09/12 11:49:54;;;;;;;7.38;3.60;;;;;;;31.68;37.75;99819.97;10300696;28;20061;-58
2023/09/12 11:54:55;;;;;;;13.48;3.75;;;;;;;31.37;38.54;99829.28;10300000;28;20155;-58
2023/09/12 11:59:57;;;;;;;15.15;3.90;;;;;;;31.23;38.61;99821.94;10298508;28;20113;-58
2023/09/12 12:04:59;;;;;;;9.00;4.38;;;;;;;31.36;38.55;99824.84;10299264;28;20045;-58
2023/09/12 12:10:01;;;;;;;12.70;3.60;;;;;;;31.80;38.00;99820.06;10299954;28;20522;-58
2023/09/12 12:15:02;;;;;;;7.40;3.60;;;;;;;32.14;37.72;99812.78;10299500;28;20049;-59
2023/09/12 12:20:08;;;;;;;11.32;3.92;;;;;;;32.48;36.80;99814.53;10301313;28;20089;-60
2023/09/12 12:25:10;;;;;;;;;;;;;;;32.58;37.40;99803.06;10300322;28;20054;-59
2023/09/12 12:30:13;;;;;;;7.78;3.47;;;;;;;32.97;36.58;99795.41;10302141;28;19931;-59
2023/09/12 12:35:21;;;;;;;17.33;4.18;;;;;;;32.75;36.75;99795.75;10299045;28;20178;-60
2023/09/12 12:40:42;;;;;;;8.77;3.40;;;;;;;32.95;36.45;99799.69;10282982;28;20047;-60
2023/09/12 12:45:53;;;;;;;9.30;3.80;;;;;;;33.09;36.22;99791.03;10301688;28;20180;-60
2023/09/12 12:50:54;;;;;;;8.82;3.95;;;;;;;33.19;36.05;99799.00;10295538;28;20137;-56
2023/09/12 12:55:57;;;;;;;6.30;3.60;;;;;;;33.47;36.18;99792.84;10293481;28;20416;-57
2023/09/12 13:00:58;;;;;;;10.52;4.00;;;;;;;33.36;36.14;99782.13;10283510;28;20423;-57
2023/09/12 13:06:00;;;;;;;11.10;3.45;;;;;;;33.46;35.13;99777.28;10302623;28;20058;-57
2023/09/12 13:11:02;;;;;;;7.57;3.40;;;;;;;33.55;36.00;99773.25;10299525;28;20538;-56
2023/09/12 13:16:05;;;;;;;8.43;3.10;;;;;;;33.75;35.51;99759.56;10294923;28;20097;-57
2023/09/12 13:21:06;;;;;;;11.13;3.80;;;;;;;33.58;35.37;99758.59;10303393;28;20437;-57
2023/09/12 13:26:09;;;;;;;6.93;3.33;;;;;;;33.88;35.15;99744.50;10300443;28;20269;-58
2023/09/12 13:31:11;;;;;;;15.32;3.15;;;;;;;34.14;34.86;99743.31;10295861;28;20100;-57
2023/09/12 13:36:13;;;;;;;6.78;3.05;;;;;;;34.37;34.58;99729.72;10299780;28;20044;-58
2023/09/12 13:41:14;;;;;;;7.35;3.95;;;;;;;34.53;34.15;99736.19;10303897;28;20042;-58
2023/09/12 13:46:16;;;;;;;6.05;3.08;;;;;;;34.62;34.30;99735.25;10307694;28;20412;-58
2023/09/12 13:51:18;;;;;;;9.60;3.00;;;;;;;35.05;33.87;99736.50;10304038;28;20050;-58
2023/09/12 13:56:19;;;;;;;17.83;7.07;;;;;;;35.02;33.40;99732.47;10302727;28;20039;-58
2023/09/12 14:01:21;;;;;;;8.90;3.85;;;;;;;34.88;33.00;99734.84;10306343;28;20054;-58
2023/09/12 14:06:35;;;;;;;11.82;3.80;;;;;;;35.39;33.39;99725.88;10303625;28;20085;-57
2023/09/12 14:11:37;;;;;;;8.85;3.00;;;;;;;35.81;32.49;99725.41;10305978;28;20047;-58
2023/09/12 14:16:39;;;;;;;8.65;3.17;;;;;;;36.30;31.80;99722.97;10301508;28;20061;-59
2023/09/12 14:21:44;;;;;;;10.30;3.90;;;;;;;36.97;31.43;99721.19;10306136;28;20137;-58
2023/09/12 14:26:47;;;;;;;5.00;2.95;;;;;;;38.05;29.89;99707.88;10307013;28;20101;-57
2023/09/12 14:31:52;;;;;;;8.52;3.10;;;;;;;39.91;27.94;99713.28;10309063;28;20514;-58
2023/09/12 14:36:55;;;;;;;5.00;3.30;;;;;;;40.54;26.52;99714.88;10302431;28;20530;-58
2023/09/12 14:41:57;;;;;;;9.57;3.60;;;;;;;40.92;25.49;99709.03;10301951;28;20101;-60
2023/09/12 14:46:59;;;;;;;8.35;3.33;;;;;;;40.52;26.19;99699.59;10302219;28;20043;-58
2023/09/12 14:52:01;;;;;;;6.43;3.30;;;;;;;40.17;26.08;99692.53;10303858;28;20050;-59
2023/09/12 14:57:05;;;;;;;11.50;3.22;;;;;;;40.03;26.33;99690.44;10298465;28;20146;-58
2023/09/12 15:02:07;;;;;;;7.80;3.25;;;;;;;39.62;26.37;99684.91;10284825;28;20053;-59
2023/09/12 15:07:08;;;;;;;11.63;3.33;;;;;;;38.79;27.77;99681.25;10302842;28;20055;-59
2023/09/12 15:12:10;;;;;;;9.52;3.45;;;;;;;38.12;28.56;99679.16;10303152;28;20133;-58
2023/09/12 15:17:11;;;;;;;8.57;3.45;;;;;;;37.61;28.95;99671.94;10305366;28;20527;-60
2023/09/12 15:22:13;;;;;;;9.27;3.88;;;;;;;37.18;29.63;99675.97;10303707;28;20062;-59
2023/09/12 15:27:14;;;;;;;8.70;3.42;;;;;;;36.78;30.04;99675.19;10302708;28;20046;-59
2023/09/12 15:32:16;;;;;;;7.57;3.83;;;;;;;36.49;30.19;99666.19;10301299;28;20049;-59
2023/09/12 15:37:17;;;;;;;9.55;3.90;;;;;;;36.20;31.05;99667.56;10302182;28;20046;-59
2023/09/12 15:42:22;;;;;;;7.25;3.22;;;;;;;36.06;31.07;99665.25;10304062;28;20065;-59
2023/09/12 15:47:36;;;;;;;13.93;4.50;;;;;;;35.82;31.51;99652.28;10300634;28;20062;-58
2023/09/12 15:52:38;;;;;;;8.70;4.10;;;;;;;35.71;31.68;99652.03;10300626;28;20056;-59
2023/09/12 15:57:40;;;;;;;9.43;4.43;;;;;;;35.53;31.46;99647.97;10302715;28;20046;-59
2023/09/12 16:02:42;;;;;;;9.00;3.38;;;;;;;35.43;31.84;99643.75;10300974;28;20662;-60
2023/09/12 16:07:44;;;;;;;9.50;3.58;;;;;;;35.22;32.05;99646.78;10287924;28;20038;-63
2023/09/12 16:12:45;;;;;;;10.55;4.32;;;;;;;35.23;31.97;99645.63;10304916;28;20057;-63
2023/09/12 16:17:47;;;;;;;7.63;3.70;;;;;;;35.04;32.94;99645.50;10290338;28;20824;-64
2023/09/12 16:22:49;;;;;;;7.30;3.15;;;;;;;34.22;35.02;99646.75;10298082;28;20475;-63
2023/09/12 16:27:51;;;;;;;7.75;3.47;;;;;;;33.54;36.60;99650.94;10307227;28;20038;-64
2023/09/12 16:32:52;;;;;;;9.73;3.53;;;;;;;33.15;37.37;99662.38;10299959;28;20077;-63
2023/09/12 16:38:00;;;;;;;8.20;3.90;;;;;;;32.95;37.67;99657.66;10380780;27;20371;-65
2023/09/12 16:43:02;;;;;;;10.65;3.70;;;;;;;32.66;38.11;99659.41;10377729;28;20049;-63
2023/09/12 16:48:05;;;;;;;7.78;3.38;;;;;;;32.21;39.25;99660.91;10375029;28;20044;-61
2023/09/12 16:53:07;;;;;;;9.35;3.58;;;;;;;32.11;39.46;99658.53;10372679;28;20566;-61
2023/09/12 16:58:09;;;;;;;9.23;4.05;;;;;;;31.96;39.68;99647.97;10368356;28;20042;-61
2023/09/12 17:03:10;;;;;;;13.45;5.88;;;;;;;31.65;40.60;99651.88;10374354;28;20496;-60
2023/09/12 17:08:12;;;;;;;9.80;4.82;;;;;;;31.46;41.21;99651.47;10372462;28;20050;-59
2023/09/12 17:13:13;;;;;;;8.88;3.45;;;;;;;31.05;42.14;99650.97;10375326;28;20052;-60
2023/09/12 17:18:15;;;;;;;8.70;3.80;;;;;;;30.74;42.81;99663.06;10372781;28;20056;-59
2023/09/12 17:23:16;;;;;;;9.50;3.63;;;;;;;30.59;43.11;99666.31;10378406;28;20046;-59
2023/09/12 17:28:18;;;;;;;11.15;4.43;;;;;;;30.27;43.68;99675.91;10406833;28;20476;-60
2023/09/12 17:33:19;;;;;;;15.20;3.95;;;;;;;30.27;43.87;99660.09;10424410;28;20060;-60
2023/09/12 17:38:21;;;;;;;6.70;4.25;;;;;;;30.12;44.42;99655.84;10416967;28;20045;-61
2023/09/12 17:43:22;;;;;;;14.95;5.35;;;;;;;30.00;44.50;99642.63;10418896;28;20048;-59
2023/09/12 17:48:24;;;;;;;9.80;4.18;;;;;;;29.79;44.64;99627.75;10389807;28;20060;-59
2023/09/12 17:53:27;;;;;;;11.43;3.97;;;;;;;29.56;45.01;99647.22;10390237;28;20056;-59
2023/09/12 17:58:28;;;;;;;11.05;4.38;;;;;;;29.32;45.43;99658.66;10386863;28;20037;-59
2023/09/12 18:03:31;;;;;;;12.68;4.75;;;;;;;29.25;45.85;99655.53;10388522;28;20048;-59
2023/09/12 18:08:33;;;;;;;8.45;4.75;;;;;;;29.15;46.24;99672.41;10391039;28;20096;-59
2023/09/12 18:13:34;;;;;;;11.95;4.40;;;;;;;29.11;46.01;99686.06;10394142;28;20045;-59
2023/09/12 18:18:36;;;;;;;7.85;4.07;;;;;;;28.88;46.88;99701.84;10384097;28;20053;-60
2023/09/12 18:23:39;;;;;;;12.43;4.80;;;;;;;28.77;47.41;99720.66;10388580;28;20042;-68
2023/09/12 18:28:43;;;;;;;127.00;79.55;;;;;;;28.26;49.34;99746.66;10394192;28;20041;-61
2023/09/12 18:33:45;;;;;;;30.73;21.13;;;;;;;27.47;53.63;99722.78;10388409;28;20128;-61
2023/09/12 18:38:49;;;;;;;14.73;7.95;;;;;;;26.95;56.74;99695.22;10393033;28;20041;-60
2023/09/12 18:43:51;;;;;;;21.45;9.02;;;;;;;26.89;58.70;99690.91;10389994;28;20041;-61
2023/09/12 18:48:53;;;;;;;12.40;8.02;;;;;;;26.62;58.90;99689.69;10367994;28;20053;-59
2023/09/12 18:53:54;;;;;;;14.50;9.02;;;;;;;26.34;60.37;99696.13;10389407;28;20380;-60
2023/09/12 18:58:56;;;;;;;16.60;8.52;;;;;;;26.11;61.01;99687.63;10385006;28;20042;-61
2023/09/12 19:03:57;;;;;;;17.50;7.30;;;;;;;25.87;61.12;99693.09;10386381;28;20403;-60
2023/09/12 19:08:59;;;;;;;15.80;8.38;;;;;;;25.41;63.71;99686.19;10388633;28;20424;-61
2023/09/12 19:14:00;;;;;;;16.63;7.15;;;;;;;25.38;63.53;99666.72;10387926;28;20045;-61
2023/09/12 19:19:02;;;;;;;12.43;8.20;;;;;;;25.51;63.90;99630.22;10383597;28;20045;-61
2023/09/12 19:24:05;;;;;;;18.35;9.20;;;;;;;25.27;64.38;99599.97;10382726;28;20041;-59
2023/09/12 19:29:07;;;;;;;17.85;9.45;;;;;;;25.31;64.58;99590.00;10390034;28;20045;-60
2023/09/12 19:34:08;;;;;;;14.80;8.75;;;;;;;25.36;64.66;99565.19;10382233;28;20037;-60
2023/09/12 19:39:10;;;;;;;22.35;8.55;;;;;;;24.91;66.67;99735.84;10389211;28;20072;-60
2023/09/12 19:44:11;;;;;;;8.50;2.60;;;;;;;23.46;69.69;99871.16;10391920;28;20397;-62
2023/09/12 19:49:13;;;;;;;6.10;2.03;;;;;;;21.28;74.46;99875.94;10386866;28;20430;-62
2023/09/12 19:54:15;;;;;;;3.80;1.92;;;;;;;20.60;75.77;99862.66;10384859;28;20678;-66
2023/09/12 19:59:17;;;;;;;5.38;2.03;;;;;;;20.29;76.51;99864.13;10387643;28;20762;-60
2023/09/12 20:04:18;;;;;;;9.38;3.55;;;;;;;20.20;76.65;99828.22;10389863;28;20103;-59
2023/09/12 20:09:21;;;;;;;5.15;2.47;;;;;;;20.26;76.64;99819.06;10392438;28;20050;-61
2023/09/12 20:14:22;;;;;;;4.93;3.50;;;;;;;20.35;76.31;99833.06;10381433;28;20049;-61
2023/09/12 20:19:24;;;;;;;3.15;1.77;;;;;;;20.23;76.06;99835.09;10371205;28;20501;-60
2023/09/12 20:24:25;;;;;;;2.20;0.88;;;;;;;20.25;76.02;99830.22;10383749;28;20045;-61
2023/09/12 20:29:29;;;;;;;0.00;0.00;;;;;;;20.20;75.65;99820.03;10392075;28;20078;-60
2023/09/12 20:34:32;;;;;;;0.00;0.00;;;;;;;20.37;75.08;99815.34;10387759;28;20051;-60
2023/09/12 20:39:34;;;;;;;0.00;0.00;;;;;;;20.59;74.84;99814.56;10384899;28;20058;-63
2023/09/12 20:44:35;;;;;;;0.00;0.00;;;;;;;20.77;74.20;99818.84;10382620;28;20523;-62
2023/09/12 20:49:55;;;;;;;0.00;0.00;;;;;;;20.79;74.35;99811.22;10379394;28;20048;-60
2023/09/12 20:54:57;;;;;;;0.00;0.00;;;;;;;20.63;75.42;99826.63;10382196;28;20047;-62
2023/09/12 20:59:59;;;;;;;0.00;0.00;;;;;;;20.55;75.74;99837.97;10385710;28;20053;-63
2023/09/12 21:05:00;;;;;;;0.00;0.00;;;;;;;20.75;75.03;99840.97;10382067;28;20692;-61
2023/09/12 21:10:03;;;;;;;0.00;0.00;;;;;;;20.80;75.00;99837.47;10386336;28;20497;-61
2023/09/12 21:15:05;;;;;;;0.00;0.00;;;;;;;20.79;75.11;99833.06;10380149;28;20034;-62
2023/09/12 21:20:07;;;;;;;0.00;0.00;;;;;;;20.88;75.07;99837.00;10377130;28;20472;-61
2023/09/12 21:25:08;;;;;;;0.00;0.00;;;;;;;20.84;75.86;99841.34;10391835;28;20269;-60
2023/09/12 21:30:11;;;;;;;0.00;0.00;;;;;;;20.82;76.17;99859.06;10396189;28;20041;-61
2023/09/12 21:35:15;;;;;;;0.00;0.00;;;;;;;20.95;75.78;99855.91;10389895;28;20180;-60
2023/09/12 21:40:17;;;;;;;0.00;0.00;;;;;;;20.88;75.85;99866.25;10393521;28;20377;-60
2023/09/12 21:45:18;;;;;;;0.00;0.00;;;;;;;20.87;75.53;99862.66;10389003;28;20049;-63
2023/09/12 21:50:20;;;;;;;0.00;0.00;;;;;;;20.93;75.23;99874.47;10399485;28;20060;-64
2023/09/12 21:55:21;;;;;;;0.00;0.00;;;;;;;20.93;75.62;99875.34;10392355;28;20056;-65
2023/09/12 22:00:23;;;;;;;0.00;0.00;;;;;;;21.00;74.93;99873.19;10386174;28;20537;-63
2023/09/12 22:05:25;;;;;;;0.00;0.00;;;;;;;20.86;75.61;99876.59;10388813;28;20046;-65
2023/09/12 22:10:27;;;;;;;0.00;0.00;;;;;;;20.86;75.53;99877.44;10391735;28;20084;-62
2023/09/12 22:15:28;;;;;;;0.00;0.00;;;;;;;20.91;74.92;99885.69;10388932;28;20043;-63
2023/09/12 22:20:31;;;;;;;0.00;0.00;;;;;;;20.94;75.21;99901.56;10395660;28;20128;-63
2023/09/12 22:25:32;;;;;;;0.00;0.00;;;;;;;20.96;74.74;99891.19;10390490;28;20045;-65
2023/09/12 22:30:34;;;;;;;0.00;0.00;;;;;;;20.96;74.94;99890.38;10397145;28;20079;-63
2023/09/12 22:35:35;;;;;;;0.00;0.00;;;;;;;20.97;74.76;99883.81;10391831;28;20062;-64
2023/09/12 22:40:37;;;;;;;0.00;0.00;;;;;;;20.92;74.99;99887.31;10391158;28;20572;-62
2023/09/12 22:45:43;;;;;;;0.00;0.00;;;;;;;20.92;74.53;99892.78;10394771;28;20051;-63
2023/09/12 22:50:47;;;;;;;0.00;0.00;;;;;;;20.85;74.93;99899.53;10388951;28;20131;-63
2023/09/12 22:55:48;;;;;;;0.00;0.00;;;;;;;20.74;75.19;99890.41;10392068;28;20041;-64
2023/09/12 23:00:50;;;;;;;0.00;0.00;;;;;;;20.54;75.25;99908.16;10393004;28;20043;-63
2023/09/12 23:05:52;;;;;;;0.00;0.00;;;;;;;20.51;75.21;99918.75;10385535;28;20099;-64
2023/09/12 23:10:53;;;;;;;0.00;0.00;;;;;;;20.47;74.93;99915.69;10393377;28;20046;-64
2023/09/12 23:15:57;;;;;;;0.00;0.00;;;;;;;20.46;74.68;99915.94;10403917;28;20052;-62
2023/09/12 23:20:59;;;;;;;0.00;0.00;;;;;;;20.38;74.61;99920.75;10387490;28;20420;-65